sensor_id;sensor_type;location;lat;lon;timestamp;P1;durP1;ratioP1;P2;durP2;ratioP2
20391;SDS011;10355;53.688;10.078;2023-02-15T00:00:38;28.98;;;15.00;;
20391;SDS011;10355;53.688;10.078;2023-02-15T00:03:21;27.27;;;14.75;;
20391;SDS011;10355;53.688;10.078;2023-02-15T00:06:05;28.90;;;15.07;;
20391;SDS011;10355;53.688;10.078;2023-02-15T00:08:48;28.77;;;15.43;;
20391;SDS011;10355;53.688;10.078;2023-02-15T00:11:31;28.02;;;15.27;;
20391;SDS011;10355;53.688;10.078;2023-02-15T00:14:22;28.35;;;15.30;;
20391;SDS011;10355;53.688;10.078;2023-02-15T00:17:05;30.25;;;15.63;;
20391;SDS011;10355;53.688;10.078;2023-02-15T00:19:48;28.65;;;15.43;;
20391;SDS011;10355;53.688;10.078;2023-02-15T00:22:32;24.95;;;14.43;;
20391;SDS011;10355;53.688;10.078;2023-02-15T00:25:14;27.92;;;14.82;;
20391;SDS011;10355;53.688;10.078;2023-02-15T00:27:57;26.52;;;14.40;;
20391;SDS011;10355;53.688;10.078;2023-02-15T00:30:42;24.92;;;14.63;;
20391;SDS011;10355;53.688;10.078;2023-02-15T00:33:24;27.70;;;14.98;;
20391;SDS011;10355;53.688;10.078;2023-02-15T00:36:08;25.02;;;13.98;;
20391;SDS011;10355;53.688;10.078;2023-02-15T00:38:52;26.25;;;14.80;;
20391;SDS011;10355;53.688;10.078;2023-02-15T00:41:34;25.63;;;14.32;;
20391;SDS011;10355;53.688;10.078;2023-02-15T00:44:17;27.80;;;14.02;;
20391;SDS011;10355;53.688;10.078;2023-02-15T00:47:00;26.80;;;14.73;;
20391;SDS011;10355;53.688;10.078;2023-02-15T00:49:42;28.40;;;15.38;;
20391;SDS011;10355;53.688;10.078;2023-02-15T00:52:25;27.95;;;15.05;;
20391;SDS011;10355;53.688;10.078;2023-02-15T00:55:09;29.10;;;15.48;;
20391;SDS011;10355;53.688;10.078;2023-02-15T00:57:52;28.02;;;15.10;;
20391;SDS011;10355;53.688;10.078;2023-02-15T01:00:35;28.83;;;15.75;;
20391;SDS011;10355;53.688;10.078;2023-02-15T01:03:18;28.45;;;14.70;;
20391;SDS011;10355;53.688;10.078;2023-02-15T01:06:01;27.35;;;14.75;;
20391;SDS011;10355;53.688;10.078;2023-02-15T01:08:44;28.60;;;15.52;;
20391;SDS011;10355;53.688;10.078;2023-02-15T01:11:28;28.08;;;14.43;;
20391;SDS011;10355;53.688;10.078;2023-02-15T01:14:11;30.30;;;15.80;;
20391;SDS011;10355;53.688;10.078;2023-02-15T01:16:55;26.42;;;14.88;;
20391;SDS011;10355;53.688;10.078;2023-02-15T01:19:38;31.08;;;16.15;;
20391;SDS011;10355;53.688;10.078;2023-02-15T01:22:20;28.05;;;15.02;;
20391;SDS011;10355;53.688;10.078;2023-02-15T01:25:03;29.40;;;15.20;;
20391;SDS011;10355;53.688;10.078;2023-02-15T01:27:47;25.27;;;14.07;;
20391;SDS011;10355;53.688;10.078;2023-02-15T01:30:30;27.00;;;14.55;;
20391;SDS011;10355;53.688;10.078;2023-02-15T01:33:13;30.83;;;15.60;;
20391;SDS011;10355;53.688;10.078;2023-02-15T01:35:59;28.65;;;15.25;;
20391;SDS011;10355;53.688;10.078;2023-02-15T01:38:42;27.50;;;14.60;;
20391;SDS011;10355;53.688;10.078;2023-02-15T01:41:25;29.52;;;14.77;;
20391;SDS011;10355;53.688;10.078;2023-02-15T01:47:12;27.70;;;14.60;;
20391;SDS011;10355;53.688;10.078;2023-02-15T01:49:58;27.67;;;14.70;;
20391;SDS011;10355;53.688;10.078;2023-02-15T01:52:43;31.42;;;15.13;;
20391;SDS011;10355;53.688;10.078;2023-02-15T01:55:30;28.00;;;15.00;;
20391;SDS011;10355;53.688;10.078;2023-02-15T01:58:14;30.33;;;14.93;;
20391;SDS011;10355;53.688;10.078;2023-02-15T02:00:59;27.20;;;14.30;;
20391;SDS011;10355;53.688;10.078;2023-02-15T02:03:45;29.65;;;14.60;;
20391;SDS011;10355;53.688;10.078;2023-02-15T02:06:31;29.52;;;15.02;;
20391;SDS011;10355;53.688;10.078;2023-02-15T02:09:15;26.67;;;14.10;;
20391;SDS011;10355;53.688;10.078;2023-02-15T02:11:57;26.33;;;13.48;;
20391;SDS011;10355;53.688;10.078;2023-02-15T02:14:40;24.60;;;14.00;;
20391;SDS011;10355;53.688;10.078;2023-02-15T02:17:26;24.60;;;13.23;;
20391;SDS011;10355;53.688;10.078;2023-02-15T02:20:22;24.58;;;13.50;;
20391;SDS011;10355;53.688;10.078;2023-02-15T02:23:15;26.85;;;14.75;;
20391;SDS011;10355;53.688;10.078;2023-02-15T02:26:15;26.02;;;13.45;;
20391;SDS011;10355;53.688;10.078;2023-02-15T02:29:14;25.52;;;14.30;;
20391;SDS011;10355;53.688;10.078;2023-02-15T02:35:02;24.80;;;13.10;;
20391;SDS011;10355;53.688;10.078;2023-02-15T02:37:46;24.42;;;13.32;;
20391;SDS011;10355;53.688;10.078;2023-02-15T02:40:34;26.05;;;13.48;;
20391;SDS011;10355;53.688;10.078;2023-02-15T02:43:20;24.48;;;13.15;;
20391;SDS011;10355;53.688;10.078;2023-02-15T02:46:05;27.42;;;14.02;;
20391;SDS011;10355;53.688;10.078;2023-02-15T02:48:49;24.30;;;13.35;;
20391;SDS011;10355;53.688;10.078;2023-02-15T02:51:33;27.95;;;12.85;;
20391;SDS011;10355;53.688;10.078;2023-02-15T02:54:16;27.25;;;13.57;;
20391;SDS011;10355;53.688;10.078;2023-02-15T02:57:01;24.40;;;12.90;;
20391;SDS011;10355;53.688;10.078;2023-02-15T02:59:45;27.67;;;13.80;;
20391;SDS011;10355;53.688;10.078;2023-02-15T03:02:29;26.50;;;13.95;;
20391;SDS011;10355;53.688;10.078;2023-02-15T03:05:15;26.40;;;13.48;;
20391;SDS011;10355;53.688;10.078;2023-02-15T03:08:00;24.80;;;14.32;;
20391;SDS011;10355;53.688;10.078;2023-02-15T03:10:47;25.85;;;13.20;;
20391;SDS011;10355;53.688;10.078;2023-02-15T03:13:30;26.50;;;13.60;;
20391;SDS011;10355;53.688;10.078;2023-02-15T03:16:14;27.42;;;13.98;;
20391;SDS011;10355;53.688;10.078;2023-02-15T03:19:11;25.23;;;13.38;;
20391;SDS011;10355;53.688;10.078;2023-02-15T03:21:58;26.92;;;14.43;;
20391;SDS011;10355;53.688;10.078;2023-02-15T03:24:53;26.88;;;14.43;;
20391;SDS011;10355;53.688;10.078;2023-02-15T03:27:37;27.08;;;14.50;;
20391;SDS011;10355;53.688;10.078;2023-02-15T03:30:22;27.58;;;13.40;;
20391;SDS011;10355;53.688;10.078;2023-02-15T03:33:05;28.10;;;14.70;;
20391;SDS011;10355;53.688;10.078;2023-02-15T03:35:49;27.58;;;14.90;;
20391;SDS011;10355;53.688;10.078;2023-02-15T03:38:33;25.27;;;14.63;;
20391;SDS011;10355;53.688;10.078;2023-02-15T03:41:18;29.02;;;14.98;;
20391;SDS011;10355;53.688;10.078;2023-02-15T03:44:03;25.55;;;14.23;;
20391;SDS011;10355;53.688;10.078;2023-02-15T03:46:49;27.23;;;14.45;;
20391;SDS011;10355;53.688;10.078;2023-02-15T03:49:36;27.60;;;13.80;;
20391;SDS011;10355;53.688;10.078;2023-02-15T03:52:21;26.15;;;13.63;;
20391;SDS011;10355;53.688;10.078;2023-02-15T03:55:05;23.55;;;12.60;;
20391;SDS011;10355;53.688;10.078;2023-02-15T03:57:49;25.65;;;13.85;;
20391;SDS011;10355;53.688;10.078;2023-02-15T04:00:51;24.50;;;13.90;;
20391;SDS011;10355;53.688;10.078;2023-02-15T04:03:56;27.35;;;13.88;;
20391;SDS011;10355;53.688;10.078;2023-02-15T04:06:39;25.63;;;13.90;;
20391;SDS011;10355;53.688;10.078;2023-02-15T04:09:22;27.52;;;14.70;;
20391;SDS011;10355;53.688;10.078;2023-02-15T04:12:22;25.65;;;13.88;;
20391;SDS011;10355;53.688;10.078;2023-02-15T04:15:07;26.50;;;14.35;;
20391;SDS011;10355;53.688;10.078;2023-02-15T04:18:07;29.80;;;15.60;;
20391;SDS011;10355;53.688;10.078;2023-02-15T04:20:50;30.10;;;14.85;;
20391;SDS011;10355;53.688;10.078;2023-02-15T04:23:50;25.45;;;13.52;;
20391;SDS011;10355;53.688;10.078;2023-02-15T04:26:50;26.33;;;13.65;;
20391;SDS011;10355;53.688;10.078;2023-02-15T04:29:34;23.58;;;13.85;;
20391;SDS011;10355;53.688;10.078;2023-02-15T04:32:18;26.23;;;13.50;;
20391;SDS011;10355;53.688;10.078;2023-02-15T04:35:01;25.58;;;13.77;;
20391;SDS011;10355;53.688;10.078;2023-02-15T04:37:44;28.38;;;14.15;;
20391;SDS011;10355;53.688;10.078;2023-02-15T04:40:27;25.65;;;13.63;;
20391;SDS011;10355;53.688;10.078;2023-02-15T04:43:09;24.98;;;13.38;;
20391;SDS011;10355;53.688;10.078;2023-02-15T04:45:52;24.27;;;13.57;;
20391;SDS011;10355;53.688;10.078;2023-02-15T04:48:36;24.30;;;12.70;;
20391;SDS011;10355;53.688;10.078;2023-02-15T04:51:19;26.80;;;13.70;;
20391;SDS011;10355;53.688;10.078;2023-02-15T04:54:01;27.55;;;14.25;;
20391;SDS011;10355;53.688;10.078;2023-02-15T04:56:44;24.00;;;13.32;;
20391;SDS011;10355;53.688;10.078;2023-02-15T04:59:27;27.98;;;14.38;;
20391;SDS011;10355;53.688;10.078;2023-02-15T05:02:09;26.52;;;13.77;;
20391;SDS011;10355;53.688;10.078;2023-02-15T05:04:53;28.27;;;14.77;;
20391;SDS011;10355;53.688;10.078;2023-02-15T05:07:36;24.10;;;13.25;;
20391;SDS011;10355;53.688;10.078;2023-02-15T05:10:19;24.52;;;12.85;;
20391;SDS011;10355;53.688;10.078;2023-02-15T05:13:01;23.15;;;13.05;;
20391;SDS011;10355;53.688;10.078;2023-02-15T05:15:46;28.40;;;13.90;;
20391;SDS011;10355;53.688;10.078;2023-02-15T05:18:29;28.75;;;13.90;;
20391;SDS011;10355;53.688;10.078;2023-02-15T05:21:13;25.67;;;13.98;;
20391;SDS011;10355;53.688;10.078;2023-02-15T05:23:57;25.88;;;13.73;;
20391;SDS011;10355;53.688;10.078;2023-02-15T05:26:40;25.52;;;13.35;;
20391;SDS011;10355;53.688;10.078;2023-02-15T05:29:40;25.80;;;12.98;;
20391;SDS011;10355;53.688;10.078;2023-02-15T05:32:23;24.75;;;12.70;;
20391;SDS011;10355;53.688;10.078;2023-02-15T05:35:06;24.50;;;13.15;;
20391;SDS011;10355;53.688;10.078;2023-02-15T05:37:50;25.05;;;13.00;;
20391;SDS011;10355;53.688;10.078;2023-02-15T05:40:32;24.17;;;13.15;;
20391;SDS011;10355;53.688;10.078;2023-02-15T05:43:15;25.45;;;13.63;;
20391;SDS011;10355;53.688;10.078;2023-02-15T05:45:58;24.27;;;12.45;;
20391;SDS011;10355;53.688;10.078;2023-02-15T05:48:41;22.83;;;12.32;;
20391;SDS011;10355;53.688;10.078;2023-02-15T05:51:24;22.60;;;12.05;;
20391;SDS011;10355;53.688;10.078;2023-02-15T05:54:08;22.13;;;11.93;;
20391;SDS011;10355;53.688;10.078;2023-02-15T05:56:50;23.00;;;12.20;;
20391;SDS011;10355;53.688;10.078;2023-02-15T05:59:33;23.10;;;11.43;;
20391;SDS011;10355;53.688;10.078;2023-02-15T06:02:15;23.73;;;12.95;;
20391;SDS011;10355;53.688;10.078;2023-02-15T06:04:59;22.98;;;12.85;;
20391;SDS011;10355;53.688;10.078;2023-02-15T06:07:42;23.55;;;13.45;;
20391;SDS011;10355;53.688;10.078;2023-02-15T06:10:26;19.63;;;11.57;;
20391;SDS011;10355;53.688;10.078;2023-02-15T06:13:09;20.52;;;12.00;;
20391;SDS011;10355;53.688;10.078;2023-02-15T06:15:52;21.83;;;12.30;;
20391;SDS011;10355;53.688;10.078;2023-02-15T06:18:34;20.35;;;12.15;;
20391;SDS011;10355;53.688;10.078;2023-02-15T06:21:17;19.52;;;11.52;;
20391;SDS011;10355;53.688;10.078;2023-02-15T06:23:59;19.42;;;11.45;;
20391;SDS011;10355;53.688;10.078;2023-02-15T06:26:43;19.67;;;11.55;;
20391;SDS011;10355;53.688;10.078;2023-02-15T06:29:26;19.13;;;11.18;;
20391;SDS011;10355;53.688;10.078;2023-02-15T06:32:09;21.15;;;11.35;;
20391;SDS011;10355;53.688;10.078;2023-02-15T06:34:51;19.20;;;11.30;;
20391;SDS011;10355;53.688;10.078;2023-02-15T06:37:34;19.00;;;11.38;;
20391;SDS011;10355;53.688;10.078;2023-02-15T06:40:16;19.67;;;11.30;;
20391;SDS011;10355;53.688;10.078;2023-02-15T06:43:00;17.85;;;10.43;;
20391;SDS011;10355;53.688;10.078;2023-02-15T06:45:43;19.70;;;11.23;;
20391;SDS011;10355;53.688;10.078;2023-02-15T06:48:26;18.02;;;11.13;;
20391;SDS011;10355;53.688;10.078;2023-02-15T06:51:08;18.23;;;11.00;;
20391;SDS011;10355;53.688;10.078;2023-02-15T06:53:51;17.73;;;10.52;;
20391;SDS011;10355;53.688;10.078;2023-02-15T06:56:33;18.75;;;11.27;;
20391;SDS011;10355;53.688;10.078;2023-02-15T06:59:17;19.38;;;11.15;;
20391;SDS011;10355;53.688;10.078;2023-02-15T07:02:00;18.90;;;11.20;;
20391;SDS011;10355;53.688;10.078;2023-02-15T07:04:43;18.85;;;11.15;;
20391;SDS011;10355;53.688;10.078;2023-02-15T07:07:25;19.27;;;11.40;;
20391;SDS011;10355;53.688;10.078;2023-02-15T07:10:08;18.92;;;10.88;;
20391;SDS011;10355;53.688;10.078;2023-02-15T07:12:51;18.63;;;11.15;;
20391;SDS011;10355;53.688;10.078;2023-02-15T07:15:34;19.75;;;11.38;;
20391;SDS011;10355;53.688;10.078;2023-02-15T07:18:16;16.15;;;10.15;;
20391;SDS011;10355;53.688;10.078;2023-02-15T07:20:59;17.15;;;10.30;;
20391;SDS011;10355;53.688;10.078;2023-02-15T07:23:41;16.75;;;9.77;;
20391;SDS011;10355;53.688;10.078;2023-02-15T07:26:24;16.15;;;9.73;;
20391;SDS011;10355;53.688;10.078;2023-02-15T07:29:07;16.85;;;10.05;;
20391;SDS011;10355;53.688;10.078;2023-02-15T07:31:51;16.55;;;10.60;;
20391;SDS011;10355;53.688;10.078;2023-02-15T07:34:34;17.17;;;10.00;;
20391;SDS011;10355;53.688;10.078;2023-02-15T07:37:16;17.20;;;10.25;;
20391;SDS011;10355;53.688;10.078;2023-02-15T07:39:59;18.05;;;10.75;;
20391;SDS011;10355;53.688;10.078;2023-02-15T07:42:41;18.13;;;11.10;;
20391;SDS011;10355;53.688;10.078;2023-02-15T07:45:24;19.40;;;10.88;;
20391;SDS011;10355;53.688;10.078;2023-02-15T07:48:08;19.48;;;11.15;;
20391;SDS011;10355;53.688;10.078;2023-02-15T07:50:51;16.58;;;9.98;;
20391;SDS011;10355;53.688;10.078;2023-02-15T07:53:34;16.75;;;8.73;;
20391;SDS011;10355;53.688;10.078;2023-02-15T07:56:17;16.60;;;9.63;;
20391;SDS011;10355;53.688;10.078;2023-02-15T07:58:59;16.65;;;9.80;;
20391;SDS011;10355;53.688;10.078;2023-02-15T08:01:44;18.17;;;9.98;;
20391;SDS011;10355;53.688;10.078;2023-02-15T08:04:28;18.30;;;10.25;;
20391;SDS011;10355;53.688;10.078;2023-02-15T08:07:10;17.38;;;10.35;;
20391;SDS011;10355;53.688;10.078;2023-02-15T08:09:53;18.52;;;10.60;;
20391;SDS011;10355;53.688;10.078;2023-02-15T08:12:36;18.58;;;10.18;;
20391;SDS011;10355;53.688;10.078;2023-02-15T08:15:18;17.33;;;9.93;;
20391;SDS011;10355;53.688;10.078;2023-02-15T08:18:01;16.95;;;10.50;;
20391;SDS011;10355;53.688;10.078;2023-02-15T08:20:49;19.83;;;10.77;;
20391;SDS011;10355;53.688;10.078;2023-02-15T08:23:32;17.35;;;10.18;;
20391;SDS011;10355;53.688;10.078;2023-02-15T08:26:14;18.95;;;10.23;;
20391;SDS011;10355;53.688;10.078;2023-02-15T08:28:58;16.88;;;10.43;;
20391;SDS011;10355;53.688;10.078;2023-02-15T08:31:41;16.98;;;9.55;;
20391;SDS011;10355;53.688;10.078;2023-02-15T08:34:24;18.70;;;10.80;;
20391;SDS011;10355;53.688;10.078;2023-02-15T08:37:08;17.48;;;10.10;;
20391;SDS011;10355;53.688;10.078;2023-02-15T08:39:51;18.42;;;10.70;;
20391;SDS011;10355;53.688;10.078;2023-02-15T08:42:34;15.85;;;9.43;;
20391;SDS011;10355;53.688;10.078;2023-02-15T08:45:16;15.70;;;10.13;;
20391;SDS011;10355;53.688;10.078;2023-02-15T08:47:59;14.48;;;9.30;;
20391;SDS011;10355;53.688;10.078;2023-02-15T08:50:41;16.50;;;9.63;;
20391;SDS011;10355;53.688;10.078;2023-02-15T08:53:25;16.00;;;10.13;;
20391;SDS011;10355;53.688;10.078;2023-02-15T08:56:08;16.30;;;9.98;;
20391;SDS011;10355;53.688;10.078;2023-02-15T08:58:51;18.05;;;10.45;;
20391;SDS011;10355;53.688;10.078;2023-02-15T09:01:34;16.25;;;9.55;;
20391;SDS011;10355;53.688;10.078;2023-02-15T09:04:17;17.60;;;10.15;;
20391;SDS011;10355;53.688;10.078;2023-02-15T09:06:59;18.02;;;10.80;;
20391;SDS011;10355;53.688;10.078;2023-02-15T09:09:43;18.70;;;10.63;;
20391;SDS011;10355;53.688;10.078;2023-02-15T09:12:27;15.10;;;9.55;;
20391;SDS011;10355;53.688;10.078;2023-02-15T09:15:09;16.65;;;10.27;;
20391;SDS011;10355;53.688;10.078;2023-02-15T09:17:52;17.50;;;10.27;;
20391;SDS011;10355;53.688;10.078;2023-02-15T09:20:35;16.88;;;9.90;;
20391;SDS011;10355;53.688;10.078;2023-02-15T09:23:18;16.98;;;10.05;;
20391;SDS011;10355;53.688;10.078;2023-02-15T09:26:09;15.68;;;9.52;;
20391;SDS011;10355;53.688;10.078;2023-02-15T09:28:53;15.60;;;9.32;;
20391;SDS011;10355;53.688;10.078;2023-02-15T09:31:37;16.60;;;9.63;;
20391;SDS011;10355;53.688;10.078;2023-02-15T09:34:20;18.05;;;10.57;;
20391;SDS011;10355;53.688;10.078;2023-02-15T09:37:04;16.67;;;10.27;;
20391;SDS011;10355;53.688;10.078;2023-02-15T09:39:47;18.42;;;10.68;;
20391;SDS011;10355;53.688;10.078;2023-02-15T09:42:42;17.35;;;10.45;;
20391;SDS011;10355;53.688;10.078;2023-02-15T09:45:26;17.40;;;10.23;;
20391;SDS011;10355;53.688;10.078;2023-02-15T09:58:52;20.75;;;11.40;;
20391;SDS011;10355;53.688;10.078;2023-02-15T10:01:39;19.13;;;11.20;;
20391;SDS011;10355;53.688;10.078;2023-02-15T10:04:29;18.70;;;11.15;;
20391;SDS011;10355;53.688;10.078;2023-02-15T10:07:18;20.67;;;11.85;;
20391;SDS011;10355;53.688;10.078;2023-02-15T10:10:06;22.42;;;12.35;;
20391;SDS011;10355;53.688;10.078;2023-02-15T10:12:56;22.30;;;11.90;;
20391;SDS011;10355;53.688;10.078;2023-02-15T10:15:44;18.98;;;10.88;;
20391;SDS011;10355;53.688;10.078;2023-02-15T10:18:37;19.92;;;11.63;;
20391;SDS011;10355;53.688;10.078;2023-02-15T10:21:29;21.15;;;11.98;;
20391;SDS011;10355;53.688;10.078;2023-02-15T10:27:21;23.48;;;13.02;;
20391;SDS011;10355;53.688;10.078;2023-02-15T10:30:07;24.13;;;12.80;;
20391;SDS011;10355;53.688;10.078;2023-02-15T10:32:56;22.65;;;12.40;;
20391;SDS011;10355;53.688;10.078;2023-02-15T10:35:42;25.73;;;13.23;;
20391;SDS011;10355;53.688;10.078;2023-02-15T10:38:30;25.95;;;13.45;;
20391;SDS011;10355;53.688;10.078;2023-02-15T10:41:19;25.90;;;13.15;;
20391;SDS011;10355;53.688;10.078;2023-02-15T10:44:11;25.17;;;13.30;;
20391;SDS011;10355;53.688;10.078;2023-02-15T10:46:59;26.65;;;13.43;;
20391;SDS011;10355;53.688;10.078;2023-02-15T10:49:51;23.83;;;12.93;;
20391;SDS011;10355;53.688;10.078;2023-02-15T10:52:39;25.95;;;13.85;;
20391;SDS011;10355;53.688;10.078;2023-02-15T10:55:28;23.77;;;12.68;;
20391;SDS011;10355;53.688;10.078;2023-02-15T10:58:15;27.77;;;13.88;;
20391;SDS011;10355;53.688;10.078;2023-02-15T11:01:00;26.38;;;13.95;;
20391;SDS011;10355;53.688;10.078;2023-02-15T11:03:52;27.63;;;14.90;;
20391;SDS011;10355;53.688;10.078;2023-02-15T11:06:41;28.08;;;13.73;;
20391;SDS011;10355;53.688;10.078;2023-02-15T11:09:32;28.27;;;15.02;;
20391;SDS011;10355;53.688;10.078;2023-02-15T11:12:16;29.45;;;14.85;;
20391;SDS011;10355;53.688;10.078;2023-02-15T11:15:02;31.83;;;15.77;;
20391;SDS011;10355;53.688;10.078;2023-02-15T11:17:47;28.77;;;14.65;;
20391;SDS011;10355;53.688;10.078;2023-02-15T11:20:33;30.92;;;15.05;;
20391;SDS011;10355;53.688;10.078;2023-02-15T11:23:18;28.95;;;15.35;;
20391;SDS011;10355;53.688;10.078;2023-02-15T11:26:03;34.92;;;16.75;;
20391;SDS011;10355;53.688;10.078;2023-02-15T11:28:47;34.47;;;16.42;;
20391;SDS011;10355;53.688;10.078;2023-02-15T11:31:34;34.45;;;16.20;;
20391;SDS011;10355;53.688;10.078;2023-02-15T11:34:20;33.30;;;16.58;;
20391;SDS011;10355;53.688;10.078;2023-02-15T11:37:06;35.33;;;16.40;;
20391;SDS011;10355;53.688;10.078;2023-02-15T11:39:52;32.65;;;16.35;;
20391;SDS011;10355;53.688;10.078;2023-02-15T11:42:36;35.42;;;17.05;;
20391;SDS011;10355;53.688;10.078;2023-02-15T11:45:21;32.30;;;16.80;;
20391;SDS011;10355;53.688;10.078;2023-02-15T11:48:08;37.55;;;18.02;;
20391;SDS011;10355;53.688;10.078;2023-02-15T11:50:51;34.22;;;17.05;;
20391;SDS011;10355;53.688;10.078;2023-02-15T11:53:35;37.55;;;16.77;;
20391;SDS011;10355;53.688;10.078;2023-02-15T11:56:22;38.97;;;18.42;;
20391;SDS011;10355;53.688;10.078;2023-02-15T11:59:06;41.00;;;18.55;;
20391;SDS011;10355;53.688;10.078;2023-02-15T12:01:52;31.85;;;16.48;;
20391;SDS011;10355;53.688;10.078;2023-02-15T12:04:36;35.47;;;16.85;;
20391;SDS011;10355;53.688;10.078;2023-02-15T12:07:22;37.05;;;17.40;;
20391;SDS011;10355;53.688;10.078;2023-02-15T12:10:13;39.67;;;19.10;;
20391;SDS011;10355;53.688;10.078;2023-02-15T12:13:12;39.75;;;18.52;;
20391;SDS011;10355;53.688;10.078;2023-02-15T12:15:55;42.15;;;19.58;;
20391;SDS011;10355;53.688;10.078;2023-02-15T12:18:40;40.35;;;20.15;;
20391;SDS011;10355;53.688;10.078;2023-02-15T12:21:26;35.70;;;16.15;;
20391;SDS011;10355;53.688;10.078;2023-02-15T12:24:11;38.28;;;17.75;;
20391;SDS011;10355;53.688;10.078;2023-02-15T12:27:00;41.10;;;20.00;;
20391;SDS011;10355;53.688;10.078;2023-02-15T12:29:45;46.55;;;22.20;;
20391;SDS011;10355;53.688;10.078;2023-02-15T12:32:30;38.65;;;18.42;;
20391;SDS011;10355;53.688;10.078;2023-02-15T12:35:13;39.90;;;18.75;;
20391;SDS011;10355;53.688;10.078;2023-02-15T12:37:57;42.47;;;20.95;;
20391;SDS011;10355;53.688;10.078;2023-02-15T12:40:42;39.50;;;19.58;;
20391;SDS011;10355;53.688;10.078;2023-02-15T12:43:38;37.22;;;18.17;;
20391;SDS011;10355;53.688;10.078;2023-02-15T12:46:23;48.38;;;20.98;;
20391;SDS011;10355;53.688;10.078;2023-02-15T12:49:07;44.88;;;20.90;;
20391;SDS011;10355;53.688;10.078;2023-02-15T12:51:50;40.70;;;18.65;;
20391;SDS011;10355;53.688;10.078;2023-02-15T12:54:35;37.97;;;18.10;;
20391;SDS011;10355;53.688;10.078;2023-02-15T12:57:22;45.03;;;21.50;;
20391;SDS011;10355;53.688;10.078;2023-02-15T13:00:06;45.03;;;20.33;;
20391;SDS011;10355;53.688;10.078;2023-02-15T13:03:15;33.17;;;14.60;;
20391;SDS011;10355;53.688;10.078;2023-02-15T13:05:58;25.23;;;12.75;;
20391;SDS011;10355;53.688;10.078;2023-02-15T13:08:45;43.00;;;21.00;;
20391;SDS011;10355;53.688;10.078;2023-02-15T13:11:28;42.38;;;20.38;;
20391;SDS011;10355;53.688;10.078;2023-02-15T13:14:16;25.80;;;13.40;;
20391;SDS011;10355;53.688;10.078;2023-02-15T13:17:00;38.17;;;17.95;;
20391;SDS011;10355;53.688;10.078;2023-02-15T13:19:45;40.13;;;20.00;;
20391;SDS011;10355;53.688;10.078;2023-02-15T13:22:32;35.60;;;17.17;;
20391;SDS011;10355;53.688;10.078;2023-02-15T13:25:17;34.25;;;17.50;;
20391;SDS011;10355;53.688;10.078;2023-02-15T13:28:02;45.33;;;21.27;;
20391;SDS011;10355;53.688;10.078;2023-02-15T13:30:45;38.92;;;20.17;;
20391;SDS011;10355;53.688;10.078;2023-02-15T13:33:30;33.13;;;16.33;;
20391;SDS011;10355;53.688;10.078;2023-02-15T13:36:16;36.55;;;17.92;;
20391;SDS011;10355;53.688;10.078;2023-02-15T13:39:03;39.75;;;20.33;;
20391;SDS011;10355;53.688;10.078;2023-02-15T13:41:51;36.88;;;19.23;;
20391;SDS011;10355;53.688;10.078;2023-02-15T13:44:50;44.67;;;20.45;;
20391;SDS011;10355;53.688;10.078;2023-02-15T13:47:41;30.08;;;14.35;;
20391;SDS011;10355;53.688;10.078;2023-02-15T13:50:31;29.00;;;14.07;;
20391;SDS011;10355;53.688;10.078;2023-02-15T13:53:24;40.00;;;20.15;;
20391;SDS011;10355;53.688;10.078;2023-02-15T13:56:12;40.25;;;19.63;;
20391;SDS011;10355;53.688;10.078;2023-02-15T13:59:07;40.35;;;19.88;;
20391;SDS011;10355;53.688;10.078;2023-02-15T14:01:55;29.98;;;15.50;;
20391;SDS011;10355;53.688;10.078;2023-02-15T14:04:43;27.80;;;13.45;;
20391;SDS011;10355;53.688;10.078;2023-02-15T14:07:33;37.92;;;20.42;;
20391;SDS011;10355;53.688;10.078;2023-02-15T14:10:23;43.03;;;21.05;;
20391;SDS011;10355;53.688;10.078;2023-02-15T14:16:09;37.30;;;19.08;;
20391;SDS011;10355;53.688;10.078;2023-02-15T14:18:56;36.10;;;18.40;;
20391;SDS011;10355;53.688;10.078;2023-02-15T14:21:43;37.60;;;18.90;;
20391;SDS011;10355;53.688;10.078;2023-02-15T14:24:30;40.10;;;20.02;;
20391;SDS011;10355;53.688;10.078;2023-02-15T14:27:20;31.90;;;15.57;;
20391;SDS011;10355;53.688;10.078;2023-02-15T14:30:12;26.90;;;13.23;;
20391;SDS011;10355;53.688;10.078;2023-02-15T14:32:57;39.30;;;19.40;;
20391;SDS011;10355;53.688;10.078;2023-02-15T14:35:43;41.42;;;19.98;;
20391;SDS011;10355;53.688;10.078;2023-02-15T14:38:31;38.53;;;18.35;;
20391;SDS011;10355;53.688;10.078;2023-02-15T14:41:17;36.40;;;18.67;;
20391;SDS011;10355;53.688;10.078;2023-02-15T14:44:04;41.88;;;20.27;;
20391;SDS011;10355;53.688;10.078;2023-02-15T14:46:52;30.25;;;14.77;;
20391;SDS011;10355;53.688;10.078;2023-02-15T14:49:38;26.08;;;13.07;;
20391;SDS011;10355;53.688;10.078;2023-02-15T14:52:21;38.08;;;19.27;;
20391;SDS011;10355;53.688;10.078;2023-02-15T14:55:04;39.63;;;19.25;;
20391;SDS011;10355;53.688;10.078;2023-02-15T14:57:55;38.75;;;19.35;;
20391;SDS011;10355;53.688;10.078;2023-02-15T15:00:40;36.33;;;18.23;;
20391;SDS011;10355;53.688;10.078;2023-02-15T15:03:23;36.50;;;19.17;;
20391;SDS011;10355;53.688;10.078;2023-02-15T15:06:22;41.15;;;18.88;;
20391;SDS011;10355;53.688;10.078;2023-02-15T15:09:10;36.90;;;18.65;;
20391;SDS011;10355;53.688;10.078;2023-02-15T15:11:53;36.70;;;19.25;;
20391;SDS011;10355;53.688;10.078;2023-02-15T15:14:37;38.90;;;19.63;;
20391;SDS011;10355;53.688;10.078;2023-02-15T15:26:26;35.72;;;19.13;;
20391;SDS011;10355;53.688;10.078;2023-02-15T15:29:09;39.13;;;20.40;;
20391;SDS011;10355;53.688;10.078;2023-02-15T15:31:51;38.53;;;20.27;;
20391;SDS011;10355;53.688;10.078;2023-02-15T15:34:44;38.90;;;19.90;;
20391;SDS011;10355;53.688;10.078;2023-02-15T15:44:05;38.97;;;19.38;;
20391;SDS011;10355;53.688;10.078;2023-02-15T15:47:06;34.88;;;18.67;;
20391;SDS011;10355;53.688;10.078;2023-02-15T15:49:54;34.65;;;17.90;;
20391;SDS011;10355;53.688;10.078;2023-02-15T15:52:37;36.92;;;18.85;;
20391;SDS011;10355;53.688;10.078;2023-02-15T15:55:21;38.35;;;18.35;;
20391;SDS011;10355;53.688;10.078;2023-02-15T15:58:05;37.10;;;17.70;;
20391;SDS011;10355;53.688;10.078;2023-02-15T16:00:51;33.13;;;17.83;;
20391;SDS011;10355;53.688;10.078;2023-02-15T16:03:34;34.53;;;17.67;;
20391;SDS011;10355;53.688;10.078;2023-02-15T16:06:27;29.85;;;16.58;;
20391;SDS011;10355;53.688;10.078;2023-02-15T16:09:10;34.17;;;16.90;;
20391;SDS011;10355;53.688;10.078;2023-02-15T16:11:54;32.15;;;16.92;;
20391;SDS011;10355;53.688;10.078;2023-02-15T16:14:41;29.40;;;16.05;;
20391;SDS011;10355;53.688;10.078;2023-02-15T16:17:30;29.17;;;15.77;;
20391;SDS011;10355;53.688;10.078;2023-02-15T16:20:15;27.45;;;15.85;;
20391;SDS011;10355;53.688;10.078;2023-02-15T16:23:04;31.17;;;17.00;;
20391;SDS011;10355;53.688;10.078;2023-02-15T16:25:52;27.85;;;16.48;;
20391;SDS011;10355;53.688;10.078;2023-02-15T16:28:36;27.88;;;15.60;;
20391;SDS011;10355;53.688;10.078;2023-02-15T16:31:20;28.27;;;15.57;;